Time;durP1;ratioP1;P1;durP2;ratioP2;P2;SDS_P1;SDS_P2;PMS_P1;PMS_P2;Temp;Humidity;BMP_temperature;BMP_pressure;BME280_temperature;BME280_humidity;BME280_pressure;Samples;Min_cycle;Max_cycle;Signal;HPM_P1;HPM_P2
2021/12/19 00:00:06;;;;;;;1999.90;999.90;;;7.60;99.90;;;;;;5083002;28;20470;-68
2021/12/19 00:02:59;;;;;;;1999.90;999.90;;;7.60;99.90;;;;;;5073264;28;20464;-70
2021/12/19 00:08:40;;;;;;;1999.90;999.90;;;7.70;99.90;;;;;;5080292;28;20439;-68
2021/12/19 00:11:06;;;;;;;1999.90;999.90;;;7.60;99.90;;;;;;5093293;28;20464;-68
2021/12/19 00:13:34;;;;;;;1999.90;999.90;;;7.60;99.90;;;;;;5082937;28;20507;-69
2021/12/19 00:16:00;;;;;;;1999.90;999.90;;;7.60;99.90;;;;;;5073794;28;20511;-69
2021/12/19 00:18:27;;;;;;;1999.90;999.90;;;7.60;99.90;;;;;;5073918;28;20453;-68
2021/12/19 00:20:55;;;;;;;1999.90;999.90;;;7.70;99.90;;;;;;5073179;28;20881;-69
2021/12/19 00:23:22;;;;;;;1999.90;999.90;;;7.70;99.90;;;;;;5081170;28;20464;-69
2021/12/19 00:25:49;;;;;;;1999.90;999.90;;;7.70;99.90;;;;;;5086633;28;20498;-69
2021/12/19 00:28:15;;;;;;;1999.90;999.90;;;7.60;99.90;;;;;;5099179;22;20959;-73
2021/12/19 00:30:42;;;;;;;1999.90;999.90;;;7.70;99.90;;;;;;5091827;28;20497;-69
2021/12/19 00:33:09;;;;;;;1999.90;999.90;;;7.60;99.90;;;;;;5093093;28;20449;-72
2021/12/19 00:35:35;;;;;;;1999.90;999.90;;;7.60;99.90;;;;;;5092685;28;20480;-72
2021/12/19 00:38:04;;;;;;;1999.90;999.90;;;7.60;99.90;;;;;;5093345;28;20984;-71
2021/12/19 00:40:32;;;;;;;1999.90;999.90;;;7.60;99.90;;;;;;5095866;28;20449;-71
2021/12/19 00:43:05;;;;;;;1999.90;999.90;;;7.60;99.90;;;;;;5096612;28;20459;-73
2021/12/19 00:45:35;;;;;;;1999.90;999.90;;;8.00;99.90;;;;;;5088749;28;20523;-72
2021/12/19 00:48:03;;;;;;;1999.90;999.90;;;7.60;99.90;;;;;;5095843;28;20976;-72
2021/12/19 00:50:32;;;;;;;1999.90;999.90;;;7.50;99.90;;;;;;5094448;28;20452;-72
2021/12/19 00:52:59;;;;;;;1999.90;999.90;;;7.50;99.90;;;;;;5093003;28;20466;-74
2021/12/19 00:55:28;;;;;;;1999.90;999.90;;;7.50;99.90;;;;;;5091467;28;20476;-72
2021/12/19 00:57:56;;;;;;;1999.90;999.90;;;7.60;99.90;;;;;;5091885;28;20988;-71
2021/12/19 01:00:29;;;;;;;1999.90;999.90;;;7.50;99.90;;;;;;5091618;28;21026;-71
2021/12/19 01:02:58;;;;;;;1999.90;999.90;;;7.50;99.90;;;;;;5092516;28;20440;-73
2021/12/19 01:05:25;;;;;;;1999.90;999.90;;;7.50;99.90;;;;;;5092163;28;20507;-72
2021/12/19 01:07:52;;;;;;;1999.90;999.90;;;7.50;99.90;;;;;;5092774;28;20464;-72
2021/12/19 01:10:19;;;;;;;1999.90;999.90;;;7.60;99.90;;;;;;5090566;28;20549;-73
2021/12/19 01:12:47;;;;;;;1999.90;999.90;;;7.50;99.90;;;;;;5091662;28;21001;-70
2021/12/19 01:15:16;;;;;;;1999.90;999.90;;;7.50;99.90;;;;;;5092446;28;20468;-72
2021/12/19 01:17:43;;;;;;;1999.90;999.90;;;7.50;99.90;;;;;;5091637;28;20448;-71
2021/12/19 01:20:14;;;;;;;1999.90;999.90;;;7.50;99.90;;;;;;5092193;28;20497;-73
2021/12/19 01:22:41;;;;;;;1999.90;999.90;;;7.50;99.90;;;;;;5091032;28;20506;-72
2021/12/19 01:25:08;;;;;;;1999.90;999.90;;;7.60;99.90;;;;;;5091358;28;20436;-71
2021/12/19 01:27:35;;;;;;;1999.90;999.90;;;7.60;99.90;;;;;;5091659;28;20867;-74
2021/12/19 01:30:05;;;;;;;1999.90;999.90;;;7.60;99.90;;;;;;5091649;28;20486;-71
2021/12/19 01:32:32;;;;;;;1999.90;999.90;;;7.60;99.90;;;;;;5092012;28;20441;-72
2021/12/19 01:34:59;;;;;;;1999.90;999.90;;;7.50;99.90;;;;;;5091526;28;20449;-73
2021/12/19 01:37:25;;;;;;;1999.90;999.90;;;7.50;99.90;;;;;;5091249;28;20465;-69
2021/12/19 01:39:52;;;;;;;1999.90;999.90;;;7.60;99.90;;;;;;5089883;28;20456;-71
2021/12/19 01:42:20;;;;;;;1999.90;999.90;;;7.50;99.90;;;;;;5091876;28;20537;-72
2021/12/19 01:44:47;;;;;;;1999.90;999.90;;;7.60;99.90;;;;;;5090308;28;20445;-71
2021/12/19 01:47:15;;;;;;;1999.90;999.90;;;7.50;99.90;;;;;;5091913;28;20956;-71
2021/12/19 01:49:42;;;;;;;1999.90;999.90;;;7.50;99.90;;;;;;5090862;28;20464;-72
2021/12/19 01:52:09;;;;;;;1999.90;999.90;;;7.50;99.90;;;;;;5092606;28;20448;-73
2021/12/19 01:54:36;;;;;;;1999.90;999.90;;;7.50;99.90;;;;;;5098696;28;20444;-73
2021/12/19 01:57:03;;;;;;;1999.90;999.90;;;7.50;99.90;;;;;;5096695;28;20507;-72
2021/12/19 01:59:30;;;;;;;1999.90;999.90;;;7.50;99.90;;;;;;5092413;28;20460;-73
2021/12/19 02:01:57;;;;;;;1999.90;999.90;;;7.50;99.90;;;;;;5092132;28;20476;-72
2021/12/19 02:04:30;;;;;;;1999.90;999.90;;;7.50;99.90;;;;;;5090342;28;20948;-71
2021/12/19 02:06:57;;;;;;;1999.90;999.90;;;7.50;99.90;;;;;;5090316;28;20441;-70
2021/12/19 02:09:25;;;;;;;1999.90;999.90;;;7.50;99.90;;;;;;5089823;28;20533;-71
2021/12/19 02:11:53;;;;;;;1999.90;999.90;;;7.50;99.90;;;;;;5089903;28;20453;-71
2021/12/19 02:14:20;;;;;;;1999.90;999.90;;;7.40;99.90;;;;;;5091038;28;20498;-71
2021/12/19 02:16:48;;;;;;;1999.90;999.90;;;7.40;99.90;;;;;;5090377;28;20476;-71
2021/12/19 02:19:15;;;;;;;1999.90;999.90;;;7.40;99.90;;;;;;5090871;28;21161;-71
2021/12/19 02:21:43;;;;;;;1999.90;999.90;;;7.40;99.90;;;;;;5090838;28;20447;-70
2021/12/19 02:24:11;;;;;;;1999.90;999.90;;;7.30;99.90;;;;;;5090472;28;20453;-73
2021/12/19 02:26:39;;;;;;;1999.90;999.90;;;7.40;99.90;;;;;;5090689;28;20513;-73
2021/12/19 02:29:07;;;;;;;1999.90;999.90;;;7.30;99.90;;;;;;5090417;28;20480;-71
2021/12/19 02:31:34;;;;;;;1999.90;999.90;;;7.30;99.90;;;;;;5090978;28;20449;-73
2021/12/19 02:34:05;;;;;;;1999.90;999.90;;;7.30;99.90;;;;;;5092026;28;20464;-72
2021/12/19 02:36:48;;;;;;;1999.90;999.90;;;7.20;99.90;;;;;;5090757;28;20490;-71
2021/12/19 02:39:43;;;;;;;1999.90;999.90;;;7.20;99.90;;;;;;5090131;28;20567;-71
2021/12/19 02:50:25;;;;;;;1999.90;999.90;;;7.20;99.90;;;;;;5074029;28;20401;-72
2021/12/19 02:52:54;;;;;;;1999.90;999.90;;;7.20;99.90;;;;;;5074362;28;20543;-71
2021/12/19 02:55:22;;;;;;;1999.90;999.90;;;7.20;99.90;;;;;;5092408;28;20502;-71
2021/12/19 02:57:49;;;;;;;1999.90;999.90;;;7.20;99.90;;;;;;5089543;28;20460;-72
2021/12/19 03:00:20;;;;;;;1999.90;999.90;;;7.20;99.90;;;;;;5090116;28;20440;-73
2021/12/19 03:02:47;;;;;;;1999.90;999.90;;;7.20;99.90;;;;;;5090719;28;20494;-73
2021/12/19 03:05:14;;;;;;;1999.90;999.90;;;7.20;99.90;;;;;;5089585;28;21168;-74
2021/12/19 03:07:42;;;;;;;1999.90;999.90;;;7.10;99.90;;;;;;5089951;28;20513;-72
2021/12/19 03:10:41;;;;;;;1999.90;999.90;;;7.10;99.90;;;;;;5089458;28;20452;-70
2021/12/19 03:13:19;;;;;;;1999.90;999.90;;;7.10;99.90;;;;;;5088128;28;20429;-72
2021/12/19 03:18:31;;;;;;;1999.90;999.90;;;7.00;99.90;;;;;;5089045;28;20471;-72
2021/12/19 03:20:58;;;;;;;1999.90;999.90;;;7.10;99.90;;;;;;5090004;28;20502;-71
2021/12/19 03:23:25;;;;;;;1999.90;999.90;;;7.10;99.90;;;;;;5089524;28;20444;-71
2021/12/19 03:25:52;;;;;;;1999.90;999.90;;;7.10;99.90;;;;;;5093233;28;20444;-71
2021/12/19 03:28:21;;;;;;;1999.90;999.90;;;7.10;99.90;;;;;;5093441;28;20984;-71
2021/12/19 03:30:48;;;;;;;1999.90;999.90;;;7.00;99.90;;;;;;5094200;28;20451;-72
2021/12/19 03:33:16;;;;;;;1999.90;999.90;;;7.00;99.90;;;;;;5092860;28;20449;-71
2021/12/19 03:35:43;;;;;;;1999.90;999.90;;;7.10;99.90;;;;;;5092875;28;20507;-71
2021/12/19 03:38:12;;;;;;;1999.90;999.90;;;7.10;99.90;;;;;;5092346;28;21114;-73
2021/12/19 03:40:43;;;;;;;1999.90;999.90;;;7.00;99.90;;;;;;5089249;28;20448;-72
2021/12/19 03:43:12;;;;;;;1999.90;999.90;;;7.00;99.90;;;;;;5089710;28;20494;-74
2021/12/19 03:45:42;;;;;;;1999.90;999.90;;;6.90;99.90;;;;;;5088741;28;20448;-72
2021/12/19 03:48:12;;;;;;;1999.90;999.90;;;6.90;99.90;;;;;;5089166;28;22131;-72
2021/12/19 03:50:39;;;;;;;1999.90;999.90;;;6.80;99.90;;;;;;5087681;28;20441;-72
2021/12/19 03:53:06;;;;;;;1999.90;999.90;;;6.80;99.90;;;;;;5088864;28;20956;-72
2021/12/19 03:55:33;;;;;;;1999.90;999.90;;;6.70;99.90;;;;;;5089004;28;21170;-72
2021/12/19 03:58:00;;;;;;;1999.90;999.90;;;6.70;99.90;;;;;;5090060;28;20490;-71
2021/12/19 04:00:28;;;;;;;1999.90;999.90;;;6.70;99.90;;;;;;5089466;28;20452;-72
2021/12/19 04:02:58;;;;;;;1999.90;999.90;;;6.80;99.90;;;;;;5089493;28;20456;-73
2021/12/19 04:05:26;;;;;;;1999.90;999.90;;;6.70;99.90;;;;;;5088733;28;20828;-72
2021/12/19 04:07:53;;;;;;;1999.90;999.90;;;6.70;99.90;;;;;;5088736;28;21052;-74
2021/12/19 04:10:21;;;;;;;1999.90;999.90;;;6.70;99.90;;;;;;5088459;28;20440;-72
2021/12/19 04:12:48;;;;;;;1999.90;999.90;;;6.80;99.90;;;;;;5091879;28;20966;-72
2021/12/19 04:15:15;;;;;;;1999.90;999.90;;;6.80;99.90;;;;;;5089594;28;20444;-74
2021/12/19 04:17:42;;;;;;;1999.90;999.90;;;6.80;99.90;;;;;;5090619;28;20480;-71
2021/12/19 04:20:11;;;;;;;1999.90;999.90;;;6.80;99.90;;;;;;5088181;28;20448;-71
2021/12/19 04:22:38;;;;;;;1999.90;999.90;;;6.80;99.90;;;;;;5090770;28;20472;-71
2021/12/19 04:25:05;;;;;;;1999.90;999.90;;;6.90;99.90;;;;;;5092842;28;20449;-73
2021/12/19 04:27:33;;;;;;;1999.90;999.90;;;6.90;99.90;;;;;;5095083;28;20965;-74
2021/12/19 04:30:00;;;;;;;1999.90;999.90;;;6.90;99.90;;;;;;5093763;28;20509;-70
2021/12/19 04:32:32;;;;;;;1999.90;999.90;;;6.90;99.90;;;;;;5093696;28;20948;-72
2021/12/19 04:35:00;;;;;;;1999.90;999.90;;;7.00;99.90;;;;;;5095555;28;20502;-72
2021/12/19 04:37:53;;;;;;;1999.90;999.90;;;7.00;99.90;;;;;;5092928;28;20480;-69
2021/12/19 04:40:20;;;;;;;1999.90;999.90;;;7.00;99.90;;;;;;5093435;28;21070;-71
2021/12/19 04:51:23;;;;;;;1999.90;999.90;;;7.00;99.90;;;;;;5092116;28;20805;-71
2021/12/19 04:54:03;;;;;;;1999.90;999.90;;;7.10;99.90;;;;;;5092457;28;20479;-72
2021/12/19 04:56:41;;;;;;;1999.90;999.90;;;7.10;99.90;;;;;;5093587;28;20517;-72
2021/12/19 04:59:48;;;;;;;1999.90;999.90;;;7.00;99.90;;;;;;5093725;28;20475;-71
2021/12/19 05:02:25;;;;;;;1999.90;999.90;;;7.10;99.90;;;;;;5093541;28;20520;-72
2021/12/19 05:15:53;;;;;;;1999.90;999.90;;;7.10;99.90;;;;;;5094726;28;20996;-72
2021/12/19 05:18:25;;;;;;;1999.90;999.90;;;7.10;99.90;;;;;;5095706;28;20920;-73
2021/12/19 05:20:56;;;;;;;1999.90;999.90;;;7.10;99.90;;;;;;5095343;28;20524;-72
2021/12/19 05:23:32;;;;;;;1999.90;999.90;;;7.00;99.90;;;;;;5096268;28;20908;-71
2021/12/19 05:26:01;;;;;;;1999.90;999.90;;;7.00;99.90;;;;;;5096595;28;20808;-73
2021/12/19 05:28:28;;;;;;;1999.90;999.90;;;7.10;99.90;;;;;;5095473;28;20487;-72
2021/12/19 05:30:54;;;;;;;1999.90;999.90;;;7.10;99.90;;;;;;5092502;28;20452;-71
2021/12/19 05:33:21;;;;;;;1999.90;999.90;;;7.10;99.90;;;;;;5093217;28;20445;-74
2021/12/19 05:36:04;;;;;;;1999.90;999.90;;;7.10;99.90;;;;;;5091898;28;20441;-71
2021/12/19 05:44:15;;;;;;;1999.90;999.90;;;7.00;99.90;;;;;;5057099;28;20432;-71
2021/12/19 05:46:43;;;;;;;1999.90;999.90;;;7.00;99.90;;;;;;5090236;28;20822;-74
2021/12/19 05:49:10;;;;;;;1999.90;999.90;;;7.10;99.90;;;;;;5090386;28;21030;-71
2021/12/19 05:51:38;;;;;;;1999.90;999.90;;;7.10;99.90;;;;;;5089877;28;20436;-74
2021/12/19 05:54:06;;;;;;;1999.90;999.90;;;7.10;99.90;;;;;;5090697;28;20863;-71
2021/12/19 05:56:34;;;;;;;1999.90;999.90;;;7.00;99.90;;;;;;5090623;28;21031;-72
2021/12/19 05:59:01;;;;;;;1999.90;999.90;;;7.10;99.90;;;;;;5091766;28;20841;-74
2021/12/19 06:01:27;;;;;;;1999.90;999.90;;;7.00;99.90;;;;;;5090353;28;20456;-71
2021/12/19 06:03:54;;;;;;;1999.90;999.90;;;7.00;99.90;;;;;;5090276;28;20453;-68
2021/12/19 06:06:21;;;;;;;1999.90;999.90;;;7.10;99.90;;;;;;5095015;28;20463;-72
2021/12/19 06:08:47;;;;;;;1999.90;999.90;;;7.00;99.90;;;;;;5095321;28;20472;-71
2021/12/19 06:11:14;;;;;;;1999.90;999.90;;;7.00;99.90;;;;;;5095316;28;20449;-72
2021/12/19 06:13:43;;;;;;;1999.90;999.90;;;7.00;99.90;;;;;;5095387;28;20900;-72
2021/12/19 06:16:10;;;;;;;1999.90;999.90;;;7.10;99.90;;;;;;5094262;28;20863;-73
2021/12/19 06:18:37;;;;;;;1999.90;999.90;;;7.10;99.90;;;;;;5094995;28;20472;-70
2021/12/19 06:21:04;;;;;;;1999.90;999.90;;;7.10;99.90;;;;;;5095217;28;20445;-72
2021/12/19 06:23:32;;;;;;;1999.90;999.90;;;7.10;99.90;;;;;;5095267;28;20448;-73
2021/12/19 06:25:58;;;;;;;1999.90;999.90;;;7.10;99.90;;;;;;5095863;28;20510;-71
2021/12/19 06:28:25;;;;;;;1999.90;999.90;;;7.00;99.90;;;;;;5113259;22;20571;-68
2021/12/19 06:30:53;;;;;;;1999.90;999.90;;;7.10;99.90;;;;;;5068270;28;20445;-67
2021/12/19 06:33:20;;;;;;;1999.90;999.90;;;7.00;99.90;;;;;;5072594;28;20499;-67
2021/12/19 06:35:46;;;;;;;1999.90;999.90;;;7.10;99.90;;;;;;5071081;28;20454;-67
2021/12/19 06:38:15;;;;;;;1999.90;999.90;;;7.10;99.90;;;;;;5071594;28;20563;-67
2021/12/19 06:40:43;;;;;;;1999.90;999.90;;;7.10;99.90;;;;;;5088234;28;20967;-66
2021/12/19 06:43:09;;;;;;;1999.90;999.90;;;7.10;99.90;;;;;;5088530;28;20440;-66
2021/12/19 06:45:36;;;;;;;1999.90;999.90;;;7.00;99.90;;;;;;5089092;28;20456;-67
2021/12/19 06:48:04;;;;;;;1999.90;999.90;;;7.00;99.90;;;;;;5088078;28;20486;-65
2021/12/19 06:50:31;;;;;;;1999.90;999.90;;;7.10;99.90;;;;;;5087565;28;20514;-67
2021/12/19 06:52:58;;;;;;;1999.90;999.90;;;7.10;99.90;;;;;;5088803;28;20448;-68
2021/12/19 06:55:25;;;;;;;1999.90;999.90;;;7.10;99.90;;;;;;5088072;28;20510;-66
2021/12/19 06:57:51;;;;;;;1999.90;999.90;;;7.10;99.90;;;;;;5088230;28;20476;-67
2021/12/19 07:00:20;;;;;;;1999.90;999.90;;;7.10;99.90;;;;;;5088387;28;20936;-68
2021/12/19 07:02:47;;;;;;;1999.90;999.90;;;7.10;99.90;;;;;;5088667;28;20445;-68
2021/12/19 07:05:15;;;;;;;1999.90;999.90;;;7.10;99.90;;;;;;5085818;28;20449;-68
2021/12/19 07:07:42;;;;;;;1999.90;999.90;;;7.10;99.90;;;;;;5088181;28;20432;-68
2021/12/19 07:10:09;;;;;;;1999.90;999.90;;;7.10;99.90;;;;;;5086939;28;21314;-69
2021/12/19 07:12:36;;;;;;;1999.90;999.90;;;7.10;99.90;;;;;;5088647;28;20461;-69
2021/12/19 07:15:05;;;;;;;1999.90;999.90;;;7.20;99.90;;;;;;5087468;28;20441;-69
2021/12/19 07:17:32;;;;;;;1999.90;999.90;;;7.20;99.90;;;;;;5088253;28;20526;-69
2021/12/19 07:19:58;;;;;;;1999.90;999.90;;;7.10;99.90;;;;;;5088404;28;20465;-68
2021/12/19 07:22:26;;;;;;;1999.90;999.90;;;7.20;99.90;;;;;;5086789;28;20947;-69
2021/12/19 07:24:53;;;;;;;1999.90;999.90;;;7.20;99.90;;;;;;5086827;28;20501;-69
2021/12/19 07:27:20;;;;;;;1999.90;999.90;;;7.10;99.90;;;;;;5088404;28;20437;-68
2021/12/19 07:29:47;;;;;;;1999.90;999.90;;;7.10;99.90;;;;;;5087765;28;20537;-68
2021/12/19 07:32:14;;;;;;;1999.90;999.90;;;7.20;99.90;;;;;;5087672;28;20900;-68
2021/12/19 07:34:42;;;;;;;1999.90;999.90;;;7.20;99.90;;;;;;5087941;28;20498;-66
2021/12/19 07:37:09;;;;;;;1999.90;999.90;;;7.10;99.90;;;;;;5088372;28;20488;-66
2021/12/19 07:39:52;;;;;;;1999.90;999.90;;;7.10;99.90;;;;;;5073718;28;20523;-67
2021/12/19 07:42:18;;;;;;;1999.90;999.90;;;7.20;99.90;;;;;;5071847;28;20449;-68
2021/12/19 07:44:45;;;;;;;1999.90;999.90;;;7.10;99.90;;;;;;5090696;28;21002;-67
2021/12/19 07:47:12;;;;;;;1999.90;999.90;;;7.10;99.90;;;;;;5092071;28;20444;-67
2021/12/19 07:49:39;;;;;;;1999.90;999.90;;;7.20;99.90;;;;;;5091542;28;20468;-68
2021/12/19 07:52:06;;;;;;;1999.90;999.90;;;7.10;99.90;;;;;;5091246;28;20502;-64
2021/12/19 07:54:33;;;;;;;1999.90;999.90;;;7.20;99.90;;;;;;5087871;28;20448;-65
2021/12/19 07:57:01;;;;;;;1999.90;999.90;;;7.20;99.90;;;;;;5088099;28;20472;-68
2021/12/19 07:59:28;;;;;;;1999.90;999.90;;;7.20;99.90;;;;;;5089080;28;20731;-66
2021/12/19 08:01:56;;;;;;;1999.90;999.90;;;7.20;99.90;;;;;;5091639;28;21030;-66
2021/12/19 08:04:23;;;;;;;1999.90;999.90;;;7.20;99.90;;;;;;5093756;28;20476;-67
2021/12/19 08:06:49;;;;;;;1999.90;999.90;;;7.20;99.90;;;;;;5094665;28;20444;-65
2021/12/19 08:09:24;;;;;;;1999.90;999.90;;;7.20;99.90;;;;;;5095069;28;20517;-69
2021/12/19 08:11:51;;;;;;;1999.90;999.90;;;7.30;99.90;;;;;;5093268;28;20528;-67
2021/12/19 08:14:19;;;;;;;1999.90;999.90;;;7.30;99.90;;;;;;5092950;28;20480;-68
2021/12/19 08:16:47;;;;;;;1999.90;999.90;;;7.30;99.90;;;;;;5085451;28;20433;-68
2021/12/19 08:19:14;;;;;;;1999.90;999.90;;;7.30;99.90;;;;;;5094611;28;20464;-69
2021/12/19 08:21:41;;;;;;;1999.90;999.90;;;7.20;99.90;;;;;;5094706;28;20441;-67
2021/12/19 08:24:11;;;;;;;1999.90;999.90;;;7.30;99.90;;;;;;5090848;28;20520;-69
2021/12/19 08:26:39;;;;;;;1999.90;999.90;;;7.30;99.90;;;;;;5093398;28;20526;-68
2021/12/19 08:29:06;;;;;;;1999.90;999.90;;;7.20;99.90;;;;;;5093963;28;20529;-69
2021/12/19 08:31:34;;;;;;;1999.90;999.90;;;7.30;99.90;;;;;;5093709;28;20932;-69
2021/12/19 08:34:00;;;;;;;1999.90;999.90;;;7.30;99.90;;;;;;5094608;28;20445;-69
2021/12/19 08:36:28;;;;;;;1999.90;999.90;;;7.20;99.90;;;;;;5094676;28;20436;-68
2021/12/19 08:38:54;;;;;;;1999.90;999.90;;;7.20;99.90;;;;;;5093757;28;20483;-68
2021/12/19 08:41:21;;;;;;;1999.90;999.90;;;7.20;99.90;;;;;;5094136;28;20865;-69
2021/12/19 08:43:48;;;;;;;1999.90;999.90;;;7.20;99.90;;;;;;5094318;28;20452;-68
2021/12/19 08:46:15;;;;;;;1999.90;999.90;;;7.10;99.90;;;;;;5094795;28;20493;-68
2021/12/19 08:48:43;;;;;;;1999.90;999.90;;;7.20;99.90;;;;;;5094003;28;20890;-69
2021/12/19 08:51:10;;;;;;;1999.90;999.90;;;7.20;99.90;;;;;;5094024;28;20444;-69
2021/12/19 08:53:37;;;;;;;1999.90;999.90;;;7.30;99.90;;;;;;5094046;28;20514;-69
2021/12/19 08:56:04;;;;;;;1999.90;999.90;;;7.30;99.90;;;;;;5094287;28;20448;-69
2021/12/19 08:58:31;;;;;;;1999.90;999.90;;;7.30;99.90;;;;;;5094081;28;20994;-69
2021/12/19 09:01:01;;;;;;;1999.90;999.90;;;7.20;99.90;;;;;;5093873;28;20444;-69
2021/12/19 09:03:28;;;;;;;1999.90;999.90;;;7.20;99.90;;;;;;5094280;28;20432;-69
2021/12/19 09:05:57;;;;;;;1999.90;999.90;;;7.30;99.90;;;;;;5093800;28;20501;-67
2021/12/19 09:08:23;;;;;;;1999.90;999.90;;;7.30;99.90;;;;;;5093854;28;20472;-69
2021/12/19 09:10:50;;;;;;;1999.90;999.90;;;7.30;99.90;;;;;;5092434;28;20444;-69
2021/12/19 09:13:17;;;;;;;1999.90;999.90;;;7.30;99.90;;;;;;5093483;28;20450;-69
2021/12/19 09:15:44;;;;;;;1999.90;999.90;;;7.20;99.90;;;;;;5093404;28;20952;-69
2021/12/19 09:18:10;;;;;;;1999.90;999.90;;;7.20;99.90;;;;;;5093578;28;20526;-69
2021/12/19 09:20:37;;;;;;;1999.90;999.90;;;7.20;99.90;;;;;;5093523;28;20453;-69
2021/12/19 09:23:05;;;;;;;1999.90;999.90;;;7.20;99.90;;;;;;5092679;28;20444;-70
2021/12/19 09:25:32;;;;;;;1999.90;999.90;;;7.20;99.90;;;;;;5093047;28;20502;-68
2021/12/19 09:27:58;;;;;;;1999.90;999.90;;;7.20;99.90;;;;;;5093553;28;20436;-69
2021/12/19 09:30:26;;;;;;;1999.90;999.90;;;7.20;99.90;;;;;;5093000;28;20928;-69
2021/12/19 09:32:53;;;;;;;1999.90;999.90;;;7.20;99.90;;;;;;5093651;28;20451;-70
2021/12/19 09:35:19;;;;;;;1999.90;999.90;;;7.20;99.90;;;;;;5093390;28;20497;-67
2021/12/19 09:37:46;;;;;;;1999.90;999.90;;;7.20;99.90;;;;;;5092966;28;20529;-66
2021/12/19 09:40:21;;;;;;;1999.90;999.90;;;7.20;99.90;;;;;;5093773;28;20521;-69
2021/12/19 09:42:49;;;;;;;1999.90;999.90;;;7.20;99.90;;;;;;5092866;28;20493;-70
2021/12/19 09:45:17;;;;;;;1999.90;999.90;;;7.20;99.90;;;;;;5093424;28;20444;-69
2021/12/19 09:47:45;;;;;;;1999.90;999.90;;;7.20;99.90;;;;;;5093173;28;20490;-69
2021/12/19 09:50:13;;;;;;;1999.90;999.90;;;7.20;99.90;;;;;;5093131;28;20468;-69
2021/12/19 09:52:40;;;;;;;1999.90;999.90;;;7.20;99.90;;;;;;5092124;28;20801;-69
2021/12/19 09:55:07;;;;;;;1999.90;999.90;;;7.20;99.90;;;;;;5092695;28;20445;-69
2021/12/19 09:57:35;;;;;;;1999.90;999.90;;;7.20;99.90;;;;;;5092905;28;20498;-69
2021/12/19 10:00:02;;;;;;;1999.90;999.90;;;7.20;99.90;;;;;;5092592;28;20468;-65
2021/12/19 10:02:28;;;;;;;1999.90;999.90;;;7.20;99.90;;;;;;5093241;28;20498;-67
2021/12/19 10:04:56;;;;;;;1999.90;999.90;;;7.20;99.90;;;;;;5093118;28;20868;-66
2021/12/19 10:07:28;;;;;;;1999.90;999.90;;;7.10;99.90;;;;;;5093183;28;20445;-66
2021/12/19 10:09:59;;;;;;;1999.90;999.90;;;7.10;99.90;;;;;;5092288;28;20487;-66
2021/12/19 10:12:49;;;;;;;1999.90;999.90;;;7.10;99.90;;;;;;5093393;28;20429;-67
2021/12/19 10:15:19;;;;;;;1999.90;999.90;;;7.20;99.90;;;;;;5092569;28;20466;-68
2021/12/19 10:17:47;;;;;;;1999.90;999.90;;;7.10;99.90;;;;;;5093231;28;20976;-68
2021/12/19 10:20:17;;;;;;;1999.90;999.90;;;7.10;99.90;;;;;;5104847;28;20475;-68
2021/12/19 10:22:45;;;;;;;1999.90;999.90;;;7.10;99.90;;;;;;5101542;28;20448;-67
2021/12/19 10:25:17;;;;;;;1999.90;999.90;;;7.10;99.90;;;;;;5093012;28;20448;-67
2021/12/19 10:27:46;;;;;;;1999.90;999.90;;;7.20;99.90;;;;;;5092973;28;20503;-67
2021/12/19 10:30:20;;;;;;;1999.90;999.90;;;7.20;99.90;;;;;;5092787;28;20526;-69
2021/12/19 10:32:51;;;;;;;1999.90;999.90;;;7.20;99.90;;;;;;5092163;28;20929;-70
2021/12/19 10:35:20;;;;;;;1999.90;999.90;;;7.20;99.90;;;;;;5092247;28;20505;-70
2021/12/19 10:37:46;;;;;;;1999.90;999.90;;;7.20;99.90;;;;;;5091583;28;20441;-70
2021/12/19 10:40:13;;;;;;;1999.90;999.90;;;7.20;99.90;;;;;;5092103;28;20498;-69
2021/12/19 10:42:48;;;;;;;1999.90;999.90;;;7.30;99.90;;;;;;5091322;28;20941;-70
2021/12/19 10:45:31;;;;;;;1999.90;999.90;;;7.30;99.90;;;;;;5092215;28;20474;-70
2021/12/19 10:48:24;;;;;;;1999.90;999.90;;;7.30;99.90;;;;;;5092618;28;20440;-67
2021/12/19 10:50:55;;;;;;;1999.90;999.90;;;7.30;99.90;;;;;;5093032;28;20459;-70
2021/12/19 10:53:26;;;;;;;1999.90;999.90;;;7.30;99.90;;;;;;5092278;28;20451;-70
2021/12/19 10:55:53;;;;;;;1999.90;999.90;;;7.30;99.90;;;;;;5091976;28;20445;-69
2021/12/19 10:58:24;;;;;;;1999.90;999.90;;;7.20;99.90;;;;;;5091763;28;21012;-70
2021/12/19 11:01:03;;;;;;;1999.90;999.90;;;7.10;99.90;;;;;;5091516;28;20482;-70
2021/12/19 11:03:37;;;;;;;1999.90;999.90;;;7.20;99.90;;;;;;5074211;28;20867;-69
2021/12/19 11:06:25;;;;;;;1999.90;999.90;;;7.20;99.90;;;;;;5081649;28;20464;-68
2021/12/19 11:08:53;;;;;;;1999.90;999.90;;;7.20;99.90;;;;;;5082877;28;20482;-69
2021/12/19 11:11:47;;;;;;;1999.90;999.90;;;7.20;99.90;;;;;;5091301;28;20440;-69
2021/12/19 11:14:16;;;;;;;1999.90;999.90;;;7.20;99.90;;;;;;5081195;28;20511;-69
2021/12/19 11:16:43;;;;;;;1999.90;999.90;;;7.20;99.90;;;;;;5089158;28;20441;-69
2021/12/19 11:19:12;;;;;;;1999.90;999.90;;;7.20;99.90;;;;;;5091178;28;20496;-70
2021/12/19 11:21:39;;;;;;;1999.90;999.90;;;7.30;99.90;;;;;;5090420;28;20452;-70
2021/12/19 11:24:09;;;;;;;1999.90;999.90;;;7.30;99.90;;;;;;5091472;28;20445;-69
2021/12/19 11:26:37;;;;;;;1999.90;999.90;;;7.20;99.90;;;;;;5092047;28;20444;-70
2021/12/19 11:29:04;;;;;;;1999.90;999.90;;;7.20;99.90;;;;;;5091363;28;20485;-70
2021/12/19 11:31:33;;;;;;;1999.90;999.90;;;7.20;99.90;;;;;;5091119;28;20445;-69
2021/12/19 11:34:24;;;;;;;1999.90;999.90;;;7.10;99.90;;;;;;5091879;28;20463;-71
2021/12/19 11:36:57;;;;;;;1999.90;999.90;;;7.10;99.90;;;;;;5095173;28;20509;-70
2021/12/19 11:39:27;;;;;;;1999.90;999.90;;;7.10;99.90;;;;;;5095489;28;20488;-70
2021/12/19 11:42:19;;;;;;;1999.90;999.90;;;7.10;99.90;;;;;;5094905;28;20463;-70
2021/12/19 11:45:01;;;;;;;1999.90;999.90;;;7.10;99.90;;;;;;5075404;28;20437;-70
2021/12/19 11:47:47;;;;;;;1999.90;999.90;;;7.10;99.90;;;;;;5095232;28;20448;-70
2021/12/19 11:50:21;;;;;;;1999.90;999.90;;;7.10;99.90;;;;;;5095042;28;20475;-69
2021/12/19 11:52:50;;;;;;;1999.90;999.90;;;7.20;99.90;;;;;;5095438;28;20436;-70
2021/12/19 11:55:36;;;;;;;1999.90;999.90;;;7.20;99.90;;;;;;5095278;28;20502;-69
2021/12/19 11:58:27;;;;;;;1999.90;999.90;;;7.20;99.90;;;;;;5095516;28;20499;-70
2021/12/19 12:00:57;;;;;;;1999.90;999.90;;;7.20;99.90;;;;;;5094038;28;20452;-69
2021/12/19 12:03:26;;;;;;;1999.90;999.90;;;7.20;99.90;;;;;;5095182;28;20428;-70
2021/12/19 12:06:25;;;;;;;1999.90;999.90;;;7.20;99.90;;;;;;5094722;28;20445;-70
2021/12/19 12:09:24;;;;;;;1999.90;999.90;;;7.20;99.90;;;;;;5094706;28;20475;-70
2021/12/19 12:12:23;;;;;;;1999.90;999.90;;;7.20;99.90;;;;;;5087970;28;20460;-70
2021/12/19 12:14:58;;;;;;;1999.90;999.90;;;7.20;99.90;;;;;;5094414;28;20519;-71
2021/12/19 12:17:33;;;;;;;1999.90;999.90;;;7.20;99.90;;;;;;5094861;28;20475;-70
2021/12/19 12:20:09;;;;;;;1999.90;999.90;;;7.10;99.90;;;;;;5094533;28;20486;-68
2021/12/19 12:22:41;;;;;;;1999.90;999.90;;;7.20;99.90;;;;;;5094745;28;20437;-70
2021/12/19 12:25:16;;;;;;;1999.90;999.90;;;7.20;99.90;;;;;;5094901;28;20467;-69
2021/12/19 12:27:45;;;;;;;1999.90;999.90;;;7.20;99.90;;;;;;5094794;28;20452;-70
2021/12/19 12:30:14;;;;;;;1999.90;999.90;;;7.10;99.90;;;;;;5103538;22;20493;-68
2021/12/19 12:32:42;;;;;;;1999.90;999.90;;;7.10;99.90;;;;;;5074229;28;20480;-72
2021/12/19 12:35:11;;;;;;;1999.90;999.90;;;7.10;99.90;;;;;;5073904;28;20498;-71
2021/12/19 12:37:41;;;;;;;1999.90;999.90;;;7.20;99.90;;;;;;5075094;28;20479;-72
2021/12/19 12:40:28;;;;;;;1999.90;999.90;;;7.20;99.90;;;;;;5087803;28;20563;-71
2021/12/19 12:43:05;;;;;;;1999.90;999.90;;;7.20;99.90;;;;;;5094386;28;20831;-71
2021/12/19 12:45:55;;;;;;;1999.90;999.90;;;7.20;99.90;;;;;;5093828;28;20531;-71
2021/12/19 12:48:32;;;;;;;1999.90;999.90;;;7.10;99.90;;;;;;5095158;28;20448;-71
2021/12/19 12:51:01;;;;;;;1999.90;999.90;;;7.10;99.90;;;;;;5094599;28;20471;-71
2021/12/19 12:53:32;;;;;;;1999.90;999.90;;;7.10;99.90;;;;;;5095832;28;20441;-71
2021/12/19 12:56:10;;;;;;;1999.90;999.90;;;7.10;99.90;;;;;;5095351;28;20444;-71
2021/12/19 12:58:39;;;;;;;1999.90;999.90;;;7.20;99.90;;;;;;5095446;28;20496;-71
2021/12/19 13:01:30;;;;;;;1999.90;999.90;;;7.20;99.90;;;;;;5095635;28;20453;-72